Terminal Aerodrome Forecast
Issued by NWS Charleston, WV

Current Version | Previous Version | Graphics & Text | Print | Product List | Glossary On
Versions: 1 2 3 4 5 6 7 8 9 10 11 12 13 14 15 16 17 18 19 20 21 22 23 24
000
FTUS41 KRLX 261722
TAFEKN
TAF
KEKN 261722Z 2618/2718 00000KT P6SM SCT040
     FM262100 00000KT P6SM SKC
     FM271000 00000KT 2SM BR BKN003
     FM271300 16006KT P6SM FEW250
     FM271700 20012G19KT P6SM SCT250=

USA.gov is the U.S. government's official web portal to all federal, state and local government web resources and services.